createdAt,value
2018-01-01T00:00:59.910Z,995.02
2018-01-01T00:01:59.884Z,995.03
2018-01-01T00:02:59.786Z,995.01
2018-01-01T00:03:59.720Z,995.09
2018-01-01T00:04:59.657Z,995.15
2018-01-01T00:05:59.593Z,995.11
2018-01-01T00:06:59.529Z,995.18
2018-01-01T00:07:59.467Z,995.11
2018-01-01T00:08:59.403Z,995.14
2018-01-01T00:09:59.341Z,995.15
2018-01-01T00:10:59.278Z,995.13
2018-01-01T00:11:59.214Z,995.10
2018-01-01T00:12:59.151Z,995.16
2018-01-01T00:13:59.087Z,995.13
2018-01-01T00:14:59.023Z,995.06
2018-01-01T00:15:58.961Z,995.12
2018-01-01T00:16:58.898Z,995.13
2018-01-01T00:17:58.833Z,995.07
2018-01-01T00:18:58.799Z,995.16
2018-01-01T00:19:58.708Z,995.07
2018-01-01T00:20:58.644Z,995.08
2018-01-01T00:21:58.580Z,995.13
2018-01-01T00:22:58.518Z,995.22
2018-01-01T00:23:58.455Z,995.10
2018-01-01T00:24:58.391Z,995.21
2018-01-01T00:25:58.329Z,995.05
2018-01-01T00:26:58.265Z,995.07
2018-01-01T00:27:58.200Z,995.15
2018-01-01T00:28:58.138Z,994.96
2018-01-01T00:29:58.075Z,995.05
2018-01-01T00:30:58.012Z,995.14
2018-01-01T00:31:57.949Z,995.11
2018-01-01T00:32:57.885Z,995.04
2018-01-01T00:33:57.823Z,995.18
2018-01-01T00:34:57.758Z,995.15
2018-01-01T00:35:57.695Z,995.15
2018-01-01T00:36:57.633Z,995.07
2018-01-01T00:37:57.569Z,995.20
2018-01-01T00:38:57.505Z,995.14
2018-01-01T00:39:57.442Z,995.18
2018-01-01T00:40:57.380Z,995.16
2018-01-01T00:41:57.314Z,995.24
2018-01-01T00:42:57.252Z,995.25
2018-01-01T00:43:57.189Z,995.22
2018-01-01T00:44:57.126Z,995.35
2018-01-01T00:45:57.063Z,995.26
2018-01-01T00:46:56.998Z,995.32
2018-01-01T00:47:56.934Z,995.39
2018-01-01T00:48:56.872Z,995.42
2018-01-01T00:49:56.808Z,995.39
2018-01-01T00:50:56.745Z,995.42
2018-01-01T00:51:56.682Z,995.39
2018-01-01T00:52:56.618Z,995.40
2018-01-01T00:53:56.555Z,995.41
2018-01-01T00:54:56.493Z,995.40
2018-01-01T00:55:56.428Z,995.39
2018-01-01T00:56:56.364Z,995.36
2018-01-01T00:57:56.302Z,995.34
2018-01-01T00:58:56.238Z,995.36
2018-01-01T00:59:56.175Z,995.31
2018-01-01T01:00:56.112Z,995.35
2018-01-01T01:01:56.054Z,995.38
2018-01-01T01:02:55.998Z,995.41
2018-01-01T01:03:55.921Z,995.50
2018-01-01T01:04:55.858Z,995.57
2018-01-01T01:05:55.794Z,995.55
2018-01-01T01:06:55.731Z,995.65
2018-01-01T01:07:55.667Z,995.61
2018-01-01T01:08:55.603Z,995.61
2018-01-01T01:09:55.540Z,995.63
2018-01-01T01:10:55.476Z,995.58
2018-01-01T01:11:55.413Z,995.49
2018-01-01T01:12:55.350Z,995.49
2018-01-01T01:13:55.285Z,995.56
2018-01-01T01:14:55.223Z,995.56
2018-01-01T01:15:55.160Z,995.64
2018-01-01T01:16:55.096Z,995.61
2018-01-01T01:17:55.033Z,995.66
2018-01-01T01:18:54.968Z,995.64
2018-01-01T01:19:54.906Z,995.58
2018-01-01T01:20:54.846Z,995.77
2018-01-01T01:21:54.777Z,995.66
2018-01-01T01:22:54.715Z,995.63
2018-01-01T01:23:54.651Z,995.69
2018-01-01T01:24:54.588Z,995.65
2018-01-01T01:25:54.526Z,995.69
2018-01-01T01:26:54.460Z,995.70
2018-01-01T01:27:54.396Z,995.80
2018-01-01T01:28:54.334Z,995.74
2018-01-01T01:29:54.271Z,995.83
2018-01-01T01:30:54.205Z,995.95
2018-01-01T01:31:54.143Z,995.89
2018-01-01T01:32:54.083Z,995.94
2018-01-01T01:33:54.015Z,995.97
2018-01-01T01:34:53.953Z,996.01
2018-01-01T01:35:53.889Z,996.11
2018-01-01T01:36:53.829Z,996.16
2018-01-01T01:37:53.761Z,996.18
2018-01-01T01:38:53.698Z,996.18
2018-01-01T01:39:53.635Z,996.23
2018-01-01T01:40:53.571Z,996.13
2018-01-01T01:41:53.507Z,996.16
2018-01-01T01:42:53.445Z,996.26
2018-01-01T01:43:53.382Z,996.22
2018-01-01T01:44:53.323Z,996.34
2018-01-01T01:45:53.254Z,996.21
2018-01-01T01:46:53.192Z,996.23
2018-01-01T01:47:53.127Z,996.24
2018-01-01T01:48:53.062Z,996.32
2018-01-01T01:49:53.000Z,996.25
2018-01-01T01:50:52.982Z,996.21
2018-01-01T01:51:52.873Z,996.23
2018-01-01T01:52:52.864Z,996.23
2018-01-01T01:53:52.747Z,996.23
2018-01-01T01:54:52.682Z,996.11
2018-01-01T01:55:52.619Z,996.30
2018-01-01T01:56:52.557Z,996.27
2018-01-01T01:57:52.492Z,996.33
2018-01-01T01:58:52.429Z,996.17
2018-01-01T01:59:52.365Z,996.21
2018-01-01T02:00:52.303Z,996.26
2018-01-01T02:01:52.239Z,996.25
2018-01-01T02:02:52.175Z,996.32
2018-01-01T02:03:52.113Z,996.26
2018-01-01T02:04:52.048Z,996.36
2018-01-01T02:05:51.984Z,996.34
2018-01-01T02:06:51.921Z,996.31
2018-01-01T02:07:51.859Z,996.36
2018-01-01T02:08:51.795Z,996.35
2018-01-01T02:09:51.731Z,996.39
2018-01-01T02:10:51.667Z,996.25
2018-01-01T02:11:51.605Z,996.29
2018-01-01T02:12:51.541Z,996.37
2018-01-01T02:13:51.478Z,996.34
2018-01-01T02:14:51.417Z,996.36
2018-01-01T02:15:51.351Z,996.39
2018-01-01T02:16:51.289Z,996.38
2018-01-01T02:17:51.223Z,996.48
2018-01-01T02:18:51.162Z,996.32
2018-01-01T02:19:51.099Z,996.35
2018-01-01T02:20:51.034Z,996.52
2018-01-01T02:21:50.971Z,996.48
2018-01-01T02:22:50.906Z,996.56
2018-01-01T02:23:50.845Z,996.28
2018-01-01T02:24:50.781Z,996.42
2018-01-01T02:25:50.714Z,996.37
2018-01-01T02:26:50.651Z,996.50
2018-01-01T02:27:50.590Z,996.30
2018-01-01T02:28:50.526Z,996.46
2018-01-01T02:29:50.462Z,996.42
2018-01-01T02:30:50.434Z,996.51
2018-01-01T02:31:50.335Z,996.37
2018-01-01T02:32:50.272Z,996.50
2018-01-01T02:33:50.207Z,996.46
2018-01-01T02:34:50.144Z,996.41
2018-01-01T02:35:50.081Z,996.40
2018-01-01T02:36:50.017Z,996.41
2018-01-01T02:37:49.953Z,996.37
2018-01-01T02:38:49.892Z,996.42
2018-01-01T02:39:49.826Z,996.52
2018-01-01T02:40:49.768Z,996.55
2018-01-01T02:41:49.698Z,996.40
2018-01-01T02:42:49.635Z,996.54
2018-01-01T02:43:49.571Z,996.51
2018-01-01T02:44:49.508Z,996.50
2018-01-01T02:45:49.444Z,996.49
2018-01-01T02:46:49.382Z,996.54
2018-01-01T02:47:49.318Z,996.53
2018-01-01T02:48:49.254Z,996.42
2018-01-01T02:49:49.190Z,996.45
2018-01-01T02:50:49.127Z,996.49
2018-01-01T02:51:49.062Z,996.48
2018-01-01T02:52:48.999Z,996.44
2018-01-01T02:53:48.934Z,996.47
2018-01-01T02:54:48.872Z,996.43
2018-01-01T02:55:48.809Z,996.48
2018-01-01T02:56:48.746Z,996.53
2018-01-01T02:57:48.681Z,996.59
2018-01-01T02:58:48.617Z,996.63
2018-01-01T02:59:48.553Z,996.46
2018-01-01T03:00:48.491Z,996.64
2018-01-01T03:01:48.425Z,996.60
2018-01-01T03:02:48.363Z,996.60
2018-01-01T03:03:48.300Z,996.64
2018-01-01T03:04:48.236Z,996.58
2018-01-01T03:05:48.172Z,996.58
2018-01-01T03:06:48.109Z,996.66
2018-01-01T03:07:48.044Z,996.65
2018-01-01T03:08:47.980Z,996.62
2018-01-01T03:09:47.917Z,996.53
2018-01-01T03:10:47.853Z,996.65
2018-01-01T03:11:47.790Z,996.68
2018-01-01T03:12:47.727Z,996.63
2018-01-01T03:13:47.662Z,996.71
2018-01-01T03:14:47.600Z,996.70
2018-01-01T03:15:47.535Z,996.71
2018-01-01T03:16:47.472Z,996.72
2018-01-01T03:17:47.407Z,996.61
2018-01-01T03:18:47.344Z,996.70
2018-01-01T03:19:47.280Z,996.76
2018-01-01T03:20:47.219Z,996.74
2018-01-01T03:21:47.152Z,996.55
2018-01-01T03:22:47.089Z,996.62
2018-01-01T03:23:47.026Z,996.44
2018-01-01T03:24:46.961Z,996.49
2018-01-01T03:25:46.899Z,996.51
2018-01-01T03:26:46.835Z,996.52
2018-01-01T03:27:46.771Z,996.41
2018-01-01T03:28:46.708Z,996.49
2018-01-01T03:29:46.642Z,996.43
2018-01-01T03:30:46.580Z,996.44
2018-01-01T03:31:46.515Z,996.50
2018-01-01T03:32:46.452Z,996.56
2018-01-01T03:33:46.388Z,996.52
2018-01-01T03:34:46.323Z,996.49
2018-01-01T03:35:46.260Z,996.52
2018-01-01T03:36:46.197Z,996.45
2018-01-01T03:37:46.132Z,996.62
2018-01-01T03:38:46.068Z,996.57
2018-01-01T03:39:46.005Z,996.54
2018-01-01T03:40:45.945Z,996.51
2018-01-01T03:41:45.876Z,996.64
2018-01-01T03:42:45.812Z,996.61
2018-01-01T03:43:45.748Z,996.68
2018-01-01T03:44:45.689Z,996.65
2018-01-01T03:45:45.620Z,996.68
2018-01-01T03:46:45.556Z,996.61
2018-01-01T03:47:45.493Z,996.66
2018-01-01T03:48:45.435Z,996.66
2018-01-01T03:49:45.365Z,996.78
2018-01-01T03:50:45.301Z,996.73
2018-01-01T03:51:45.237Z,996.82
2018-01-01T03:52:45.174Z,996.83
2018-01-01T03:53:45.110Z,996.73
2018-01-01T03:54:45.046Z,996.86
2018-01-01T03:55:44.984Z,996.98
2018-01-01T03:56:44.918Z,996.97
2018-01-01T03:57:44.854Z,997.02
2018-01-01T03:58:44.790Z,997.01
2018-01-01T03:59:44.726Z,996.96
2018-01-01T04:00:44.663Z,997.03
2018-01-01T04:01:44.599Z,996.98
2018-01-01T04:02:44.535Z,997.03
2018-01-01T04:03:44.471Z,997.04
2018-01-01T04:04:44.407Z,997.06
2018-01-01T04:05:44.342Z,997.07
2018-01-01T04:06:44.279Z,997.09
2018-01-01T04:07:44.215Z,997.22
2018-01-01T04:08:44.151Z,997.10
2018-01-01T04:09:44.089Z,997.23
2018-01-01T04:10:44.024Z,997.19
2018-01-01T04:11:43.959Z,997.20
2018-01-01T04:12:43.901Z,997.22
2018-01-01T04:13:43.830Z,997.32
2018-01-01T04:14:43.768Z,997.27
2018-01-01T04:15:43.704Z,997.12
2018-01-01T04:16:43.640Z,997.33
2018-01-01T04:17:43.578Z,997.35
2018-01-01T04:18:43.511Z,997.30
2018-01-01T04:19:43.448Z,997.33
2018-01-01T04:20:43.386Z,997.28
2018-01-01T04:21:43.369Z,997.32
2018-01-01T04:22:43.255Z,997.30
2018-01-01T04:23:43.191Z,997.42
2018-01-01T04:24:43.127Z,997.46
2018-01-01T04:25:43.062Z,997.57
2018-01-01T04:26:42.998Z,997.60
2018-01-01T04:27:42.934Z,997.59
2018-01-01T04:28:42.869Z,997.60
2018-01-01T04:29:42.805Z,997.61
2018-01-01T04:30:42.740Z,997.52
2018-01-01T04:31:42.676Z,997.50
2018-01-01T04:32:42.612Z,997.56
2018-01-01T04:33:42.553Z,997.51
2018-01-01T04:34:42.483Z,997.60
2018-01-01T04:35:42.419Z,997.60
2018-01-01T04:36:42.393Z,997.55
2018-01-01T04:37:42.288Z,997.58
2018-01-01T04:38:42.229Z,997.55
2018-01-01T04:39:42.159Z,997.58
2018-01-01T04:40:42.096Z,997.58
2018-01-01T04:41:42.029Z,997.60
2018-01-01T04:42:41.964Z,997.63
2018-01-01T04:43:41.900Z,997.62
2018-01-01T04:44:41.836Z,997.79
2018-01-01T04:45:41.770Z,997.50
2018-01-01T04:46:41.704Z,997.85
2018-01-01T04:47:41.640Z,997.77
2018-01-01T04:48:41.573Z,997.83
2018-01-01T04:49:41.508Z,997.79
2018-01-01T04:50:41.444Z,997.75
2018-01-01T04:51:41.379Z,997.58
2018-01-01T04:52:41.313Z,997.60
2018-01-01T04:53:41.250Z,997.49
2018-01-01T04:54:41.234Z,997.44
2018-01-01T04:55:41.117Z,997.41
2018-01-01T04:56:41.051Z,997.44
2018-01-01T04:57:40.986Z,997.46
2018-01-01T04:58:40.920Z,997.45
2018-01-01T04:59:40.854Z,997.44
2018-01-01T05:00:40.790Z,997.43
2018-01-01T05:01:40.723Z,997.53
2018-01-01T05:02:40.657Z,997.44
2018-01-01T05:03:40.591Z,997.48
2018-01-01T05:04:40.527Z,997.32
2018-01-01T05:05:40.460Z,997.40
2018-01-01T05:06:40.394Z,997.31
2018-01-01T05:07:40.328Z,997.43
2018-01-01T05:08:40.263Z,997.30
2018-01-01T05:09:40.197Z,997.34
2018-01-01T05:10:40.131Z,997.40
2018-01-01T05:11:40.064Z,997.35
2018-01-01T05:12:40.000Z,997.43
2018-01-01T05:13:39.933Z,997.43
2018-01-01T05:14:39.869Z,997.40
2018-01-01T05:15:39.802Z,997.49
2018-01-01T05:16:39.737Z,997.41
2018-01-01T05:17:39.669Z,997.48
2018-01-01T05:18:39.604Z,997.53
2018-01-01T05:19:39.540Z,997.54
2018-01-01T05:20:39.474Z,997.59
2018-01-01T05:21:39.406Z,997.54
2018-01-01T05:22:39.343Z,997.61
2018-01-01T05:23:39.274Z,997.63
2018-01-01T05:24:39.210Z,997.64
2018-01-01T05:25:39.143Z,997.65
2018-01-01T05:26:39.079Z,997.65
2018-01-01T05:27:39.012Z,997.62
2018-01-01T05:28:38.947Z,997.71
2018-01-01T05:29:38.880Z,997.69
2018-01-01T05:30:38.815Z,997.70
2018-01-01T05:31:38.748Z,997.64
2018-01-01T05:32:38.682Z,997.66
2018-01-01T05:33:38.619Z,997.71
2018-01-01T05:34:38.550Z,997.79
2018-01-01T05:35:38.485Z,997.84
2018-01-01T05:36:38.420Z,997.78
2018-01-01T05:37:38.355Z,997.84
2018-01-01T05:38:38.288Z,997.80
2018-01-01T05:39:38.223Z,997.86
2018-01-01T05:40:38.157Z,997.78
2018-01-01T05:41:38.090Z,997.89
2018-01-01T05:42:38.024Z,997.90
2018-01-01T05:43:37.961Z,997.95
2018-01-01T05:44:37.894Z,997.90
2018-01-01T05:45:37.828Z,997.86
2018-01-01T05:46:37.761Z,997.95
2018-01-01T05:47:37.697Z,997.92
2018-01-01T05:48:37.631Z,997.94
2018-01-01T05:49:37.566Z,997.86
2018-01-01T05:50:37.500Z,997.92
2018-01-01T05:51:37.433Z,997.98
2018-01-01T05:52:37.369Z,997.82
2018-01-01T05:53:37.302Z,997.93
2018-01-01T05:54:37.238Z,998.03
2018-01-01T05:55:37.171Z,998.03
2018-01-01T05:56:37.108Z,998.02
2018-01-01T05:57:37.039Z,998.07
2018-01-01T05:58:36.975Z,998.07
2018-01-01T05:59:36.909Z,998.13
2018-01-01T06:00:36.844Z,998.21
2018-01-01T06:01:36.777Z,998.13
2018-01-01T06:02:36.714Z,998.04
2018-01-01T06:03:36.655Z,998.11
2018-01-01T06:04:36.582Z,998.25
2018-01-01T06:05:36.514Z,998.15
2018-01-01T06:06:36.451Z,998.14
2018-01-01T06:07:36.385Z,998.22
2018-01-01T06:08:36.319Z,998.22
2018-01-01T06:09:36.254Z,998.24
2018-01-01T06:10:36.189Z,998.14
2018-01-01T06:11:36.123Z,998.11
2018-01-01T06:12:36.057Z,998.26
2018-01-01T06:13:35.992Z,998.15
2018-01-01T06:14:35.932Z,998.14
2018-01-01T06:15:35.861Z,998.23
2018-01-01T06:16:35.796Z,998.24
2018-01-01T06:17:35.731Z,998.29
2018-01-01T06:18:35.666Z,998.29
2018-01-01T06:19:35.600Z,998.26
2018-01-01T06:20:35.534Z,998.36
2018-01-01T06:21:35.468Z,998.26
2018-01-01T06:22:35.404Z,998.33
2018-01-01T06:23:35.337Z,998.34
2018-01-01T06:24:35.273Z,998.40
2018-01-01T06:25:35.206Z,998.36
2018-01-01T06:26:35.141Z,998.23
2018-01-01T06:27:35.077Z,998.43
2018-01-01T06:28:35.013Z,998.44
2018-01-01T06:29:34.943Z,998.63
2018-01-01T06:30:34.895Z,998.53
2018-01-01T06:31:34.813Z,998.57
2018-01-01T06:32:34.748Z,998.54
2018-01-01T06:33:34.680Z,998.51
2018-01-01T06:34:34.616Z,998.64
2018-01-01T06:35:34.553Z,998.61
2018-01-01T06:36:34.486Z,998.62
2018-01-01T06:37:34.421Z,998.61
2018-01-01T06:38:34.458Z,998.48
2018-01-01T06:39:34.289Z,998.46
2018-01-01T06:40:34.224Z,998.52
2018-01-01T06:41:34.158Z,998.52
2018-01-01T06:42:34.105Z,998.57
2018-01-01T06:43:34.029Z,998.56
2018-01-01T06:44:33.962Z,998.55
2018-01-01T06:45:33.896Z,998.56
2018-01-01T06:46:33.831Z,998.52
2018-01-01T06:47:33.765Z,998.60
2018-01-01T06:48:33.700Z,998.60
2018-01-01T06:49:33.633Z,998.67
2018-01-01T06:50:33.569Z,998.66
2018-01-01T06:51:33.504Z,998.64
2018-01-01T06:52:33.441Z,998.63
2018-01-01T06:53:33.372Z,998.36
2018-01-01T06:54:33.306Z,998.63
2018-01-01T06:55:33.242Z,998.61
2018-01-01T06:56:33.224Z,998.61
2018-01-01T06:57:33.111Z,998.62
2018-01-01T06:58:33.045Z,998.72
2018-01-01T06:59:32.978Z,998.65
2018-01-01T07:00:32.914Z,998.65
2018-01-01T07:01:32.846Z,998.65
2018-01-01T07:02:32.782Z,998.69
2018-01-01T07:03:32.717Z,998.82
2018-01-01T07:04:32.651Z,998.81
2018-01-01T07:05:32.584Z,998.88
2018-01-01T07:06:32.528Z,998.90
2018-01-01T07:07:32.457Z,998.85
2018-01-01T07:08:32.389Z,998.89
2018-01-01T07:09:32.368Z,998.88
2018-01-01T07:10:32.258Z,998.87
2018-01-01T07:11:32.193Z,998.83
2018-01-01T07:12:32.126Z,998.91
2018-01-01T07:13:32.062Z,998.94
2018-01-01T07:14:31.998Z,998.95
2018-01-01T07:15:31.930Z,998.92
2018-01-01T07:16:31.865Z,998.98
2018-01-01T07:17:31.801Z,998.99
2018-01-01T07:18:31.732Z,999.05
2018-01-01T07:19:31.672Z,999.08
2018-01-01T07:20:31.604Z,999.04
2018-01-01T07:21:31.536Z,999.27
2018-01-01T07:22:31.471Z,999.20
2018-01-01T07:23:31.404Z,999.25
2018-01-01T07:24:31.341Z,999.25
2018-01-01T07:25:31.272Z,999.21
2018-01-01T07:26:31.208Z,999.20
2018-01-01T07:27:31.143Z,999.36
2018-01-01T07:28:31.077Z,999.39
2018-01-01T07:29:31.010Z,999.37
2018-01-01T07:30:30.945Z,999.38
2018-01-01T07:31:30.880Z,999.37
2018-01-01T07:32:30.817Z,999.34
2018-01-01T07:33:30.749Z,999.42
2018-01-01T07:34:30.683Z,999.40
2018-01-01T07:35:30.618Z,999.43
2018-01-01T07:36:30.553Z,999.48
2018-01-01T07:37:30.488Z,999.48
2018-01-01T07:38:30.423Z,999.43
2018-01-01T07:39:30.355Z,999.43
2018-01-01T07:40:30.291Z,999.43
2018-01-01T07:41:30.224Z,999.44
2018-01-01T07:42:30.158Z,999.41
2018-01-01T07:43:30.094Z,999.35
2018-01-01T07:44:30.029Z,999.36
2018-01-01T07:45:29.962Z,999.30
2018-01-01T07:46:29.897Z,999.31
2018-01-01T07:47:29.832Z,999.22
2018-01-01T07:48:29.765Z,999.27
2018-01-01T07:49:29.700Z,999.31
2018-01-01T07:50:29.635Z,999.40
2018-01-01T07:51:29.570Z,999.44
2018-01-01T07:52:29.504Z,999.41
2018-01-01T07:53:29.439Z,999.38
2018-01-01T07:54:29.374Z,999.32
2018-01-01T07:55:29.307Z,999.42
2018-01-01T07:56:29.243Z,999.44
2018-01-01T07:57:29.177Z,999.46
2018-01-01T07:58:29.111Z,999.44
2018-01-01T07:59:29.045Z,999.45
2018-01-01T08:00:28.981Z,999.48
2018-01-01T08:01:28.915Z,999.53
2018-01-01T08:02:28.850Z,999.52
2018-01-01T08:03:28.785Z,999.58
2018-01-01T08:04:28.721Z,999.54
2018-01-01T08:05:28.654Z,999.52
2018-01-01T08:06:28.594Z,999.54
2018-01-01T08:07:28.527Z,999.55
2018-01-01T08:08:28.461Z,999.49
2018-01-01T08:09:28.396Z,999.53
2018-01-01T08:10:28.332Z,999.44
2018-01-01T08:11:28.267Z,999.54
2018-01-01T08:12:28.204Z,999.53
2018-01-01T08:13:28.138Z,999.56
2018-01-01T08:14:28.073Z,999.59
2018-01-01T08:15:28.012Z,999.54
2018-01-01T08:16:27.947Z,999.54
2018-01-01T08:17:27.881Z,999.61
2018-01-01T08:18:27.816Z,999.53
2018-01-01T08:19:27.751Z,999.61
2018-01-01T08:20:27.687Z,999.62
2018-01-01T08:21:27.622Z,999.54
2018-01-01T08:22:27.559Z,999.67
2018-01-01T08:23:27.494Z,999.66
2018-01-01T08:24:27.430Z,999.58
2018-01-01T08:25:27.366Z,999.59
2018-01-01T08:26:27.302Z,999.58
2018-01-01T08:27:27.240Z,999.55
2018-01-01T08:28:27.175Z,999.52
2018-01-01T08:29:27.109Z,999.57
2018-01-01T08:30:27.046Z,999.56
2018-01-01T08:31:26.982Z,999.60
2018-01-01T08:32:26.918Z,999.52
2018-01-01T08:33:26.854Z,999.56
2018-01-01T08:34:26.790Z,999.58
2018-01-01T08:35:26.726Z,999.52
2018-01-01T08:36:26.663Z,999.57
2018-01-01T08:37:26.600Z,999.58
2018-01-01T08:38:26.537Z,999.66
2018-01-01T08:39:26.473Z,999.69
2018-01-01T08:40:26.409Z,999.78
2018-01-01T08:41:26.345Z,999.74
2018-01-01T08:42:26.280Z,999.86
2018-01-01T08:43:26.267Z,999.79
2018-01-01T08:44:26.155Z,999.85
2018-01-01T08:45:26.090Z,999.93
2018-01-01T08:46:26.026Z,999.95
2018-01-01T08:47:25.963Z,999.89
2018-01-01T08:48:25.900Z,999.96
2018-01-01T08:49:25.835Z,999.86
2018-01-01T08:50:25.773Z,999.86
2018-01-01T08:51:25.707Z,999.98
2018-01-01T08:52:25.644Z,1000.05
2018-01-01T08:53:25.579Z,1000.04
2018-01-01T08:54:25.519Z,1000.02
2018-01-01T08:55:25.453Z,1000.06
2018-01-01T08:56:25.391Z,1000.08
2018-01-01T08:57:25.328Z,1000.10
2018-01-01T08:58:25.263Z,1000.12
2018-01-01T08:59:25.199Z,1000.16
2018-01-01T09:00:25.136Z,1000.13
2018-01-01T09:01:25.072Z,1000.10
2018-01-01T09:02:25.008Z,1000.13
2018-01-01T09:03:24.944Z,1000.14
2018-01-01T09:04:24.889Z,1000.11
2018-01-01T09:05:24.827Z,1000.09
2018-01-01T09:06:24.754Z,1000.06
2018-01-01T09:07:24.691Z,1000.10
2018-01-01T09:08:24.629Z,999.95
2018-01-01T09:09:24.563Z,1000.06
2018-01-01T09:10:24.499Z,999.94
2018-01-01T09:11:24.436Z,999.86
2018-01-01T09:12:24.375Z,999.96
2018-01-01T09:13:24.308Z,999.99
2018-01-01T09:14:24.283Z,999.97
2018-01-01T09:15:24.188Z,999.88
2018-01-01T09:16:24.118Z,999.95
2018-01-01T09:17:24.053Z,999.95
2018-01-01T09:18:23.989Z,999.80
2018-01-01T09:19:23.925Z,999.88
2018-01-01T09:20:23.863Z,999.89
2018-01-01T09:21:23.825Z,999.91
2018-01-01T09:22:23.733Z,999.78
2018-01-01T09:23:23.672Z,999.88
2018-01-01T09:24:23.607Z,999.88
2018-01-01T09:25:23.566Z,999.90
2018-01-01T09:26:23.477Z,1000.01
2018-01-01T09:27:23.414Z,1000.07
2018-01-01T09:28:23.350Z,1000.05
2018-01-01T09:29:23.287Z,1000.06
2018-01-01T09:30:23.222Z,1000.14
2018-01-01T09:31:23.158Z,1000.15
2018-01-01T09:32:23.094Z,1000.11
2018-01-01T09:33:23.030Z,1000.17
2018-01-01T09:34:22.966Z,1000.03
2018-01-01T09:35:22.903Z,1000.13
2018-01-01T09:36:22.840Z,1000.15
2018-01-01T09:37:22.800Z,1000.08
2018-01-01T09:38:22.712Z,1000.08
2018-01-01T09:39:22.649Z,1000.04
2018-01-01T09:40:22.585Z,1000.14
2018-01-01T09:41:22.520Z,1000.12
2018-01-01T09:42:22.457Z,1000.06
2018-01-01T09:43:22.396Z,1000.03
2018-01-01T09:44:22.364Z,1000.02
2018-01-01T09:45:22.264Z,999.96
2018-01-01T09:46:22.203Z,999.94
2018-01-01T09:47:22.137Z,999.91
2018-01-01T09:48:22.074Z,999.87
2018-01-01T09:49:22.009Z,999.86
2018-01-01T09:50:21.949Z,999.79
2018-01-01T09:51:21.881Z,999.82
2018-01-01T09:52:21.839Z,999.78
2018-01-01T09:53:21.754Z,999.75
2018-01-01T09:54:21.690Z,999.91
2018-01-01T09:55:21.626Z,999.92
2018-01-01T09:56:21.562Z,999.96
2018-01-01T09:57:21.498Z,999.99
2018-01-01T09:58:21.434Z,999.93
2018-01-01T09:59:21.369Z,1000.01
2018-01-01T10:00:21.307Z,999.97
2018-01-01T10:01:21.242Z,999.93
2018-01-01T10:02:21.179Z,1000.04
2018-01-01T10:03:21.115Z,999.87
2018-01-01T10:04:21.052Z,999.86
2018-01-01T10:05:20.989Z,999.92
2018-01-01T10:06:20.924Z,999.86
2018-01-01T10:07:20.861Z,999.88
2018-01-01T10:08:20.800Z,999.89
2018-01-01T10:09:20.733Z,999.86
2018-01-01T10:10:20.670Z,999.85
2018-01-01T10:11:20.605Z,999.83
2018-01-01T10:12:20.544Z,999.81
2018-01-01T10:13:20.478Z,999.77
2018-01-01T10:14:20.416Z,999.76
2018-01-01T10:15:20.352Z,999.68
2018-01-01T10:16:20.293Z,999.75
2018-01-01T10:17:20.224Z,999.78
2018-01-01T10:18:20.162Z,999.59
2018-01-01T10:19:20.098Z,999.71
2018-01-01T10:20:20.033Z,999.63
2018-01-01T10:21:19.970Z,999.64
2018-01-01T10:22:19.906Z,999.66
2018-01-01T10:23:19.843Z,999.60
2018-01-01T10:24:19.780Z,999.62
2018-01-01T10:25:19.716Z,999.57
2018-01-01T10:26:19.652Z,999.61
2018-01-01T10:27:19.588Z,999.61
2018-01-01T10:28:19.524Z,999.56
2018-01-01T10:29:19.461Z,999.64
2018-01-01T10:30:19.402Z,999.56
2018-01-01T10:31:19.333Z,999.55
2018-01-01T10:32:19.295Z,999.55
2018-01-01T10:33:19.205Z,999.58
2018-01-01T10:34:19.142Z,999.52
2018-01-01T10:35:19.107Z,999.56
2018-01-01T10:36:19.016Z,999.54
2018-01-01T10:37:18.949Z,999.41
2018-01-01T10:38:18.885Z,999.45
2018-01-01T10:39:18.821Z,999.45
2018-01-01T10:40:18.759Z,999.37
2018-01-01T10:41:18.693Z,999.36
2018-01-01T10:42:18.631Z,999.35
2018-01-01T10:43:18.566Z,999.31
2018-01-01T10:44:18.502Z,999.28
2018-01-01T10:45:18.440Z,999.27
2018-01-01T10:46:18.402Z,999.31
2018-01-01T10:47:18.314Z,999.30
2018-01-01T10:48:18.250Z,999.24
2018-01-01T10:49:18.184Z,999.20
2018-01-01T10:50:18.121Z,999.12
2018-01-01T10:51:18.057Z,999.08
2018-01-01T10:52:17.993Z,999.05
2018-01-01T10:53:17.929Z,999.01
2018-01-01T10:54:17.866Z,999.03
2018-01-01T10:55:17.830Z,998.83
2018-01-01T10:56:17.739Z,998.92
2018-01-01T10:57:17.675Z,998.95
2018-01-01T10:58:17.612Z,998.89
2018-01-01T10:59:17.552Z,998.85
2018-01-01T11:00:17.484Z,998.84
2018-01-01T11:01:17.420Z,998.85
2018-01-01T11:02:17.357Z,998.84
2018-01-01T11:03:17.293Z,998.78
2018-01-01T11:04:17.235Z,998.78
2018-01-01T11:05:17.167Z,998.81
2018-01-01T11:06:17.101Z,998.80
2018-01-01T11:07:17.039Z,998.70
2018-01-01T11:08:16.978Z,998.68
2018-01-01T11:09:16.911Z,998.57
2018-01-01T11:10:16.849Z,998.57
2018-01-01T11:11:16.786Z,998.54
2018-01-01T11:12:16.722Z,998.54
2018-01-01T11:13:16.682Z,998.48
2018-01-01T11:14:16.606Z,998.42
2018-01-01T11:15:16.533Z,998.48
2018-01-01T11:16:16.469Z,998.45
2018-01-01T11:17:16.406Z,998.42
2018-01-01T11:18:16.343Z,998.23
2018-01-01T11:19:16.281Z,998.35
2018-01-01T11:20:16.219Z,998.32
2018-01-01T11:21:16.153Z,998.33
2018-01-01T11:22:16.165Z,998.29
2018-01-01T11:23:16.029Z,998.25
2018-01-01T11:24:15.967Z,998.24
2018-01-01T11:25:15.927Z,998.19
2018-01-01T11:26:15.840Z,998.19
2018-01-01T11:27:15.777Z,998.20
2018-01-01T11:28:15.716Z,998.16
2018-01-01T11:29:15.650Z,998.17
2018-01-01T11:30:15.587Z,998.19
2018-01-01T11:31:15.548Z,998.12
2018-01-01T11:32:15.461Z,998.13
2018-01-01T11:33:15.424Z,998.17
2018-01-01T11:34:15.361Z,998.23
2018-01-01T11:35:15.296Z,998.15
2018-01-01T11:36:15.208Z,997.96
2018-01-01T11:37:15.144Z,998.05
2018-01-01T11:38:15.082Z,998.04
2018-01-01T11:39:15.019Z,997.95
2018-01-01T11:40:14.955Z,998.00
2018-01-01T11:41:14.892Z,998.00
2018-01-01T11:42:14.828Z,997.94
2018-01-01T11:43:14.766Z,997.82
2018-01-01T11:44:14.702Z,997.77
2018-01-01T11:45:14.639Z,997.74
2018-01-01T11:46:14.575Z,997.72
2018-01-01T11:47:14.512Z,997.66
2018-01-01T11:48:14.451Z,997.62
2018-01-01T11:49:14.385Z,997.62
2018-01-01T11:50:14.323Z,997.61
2018-01-01T11:51:14.259Z,997.50
2018-01-01T11:52:14.196Z,997.59
2018-01-01T11:53:14.131Z,997.50
2018-01-01T11:54:14.068Z,997.47
2018-01-01T11:55:14.005Z,997.54
2018-01-01T11:56:13.942Z,997.47
2018-01-01T11:57:13.878Z,997.41
2018-01-01T11:58:13.814Z,997.38
2018-01-01T11:59:13.755Z,997.34
2018-01-01T12:00:13.689Z,997.28
2018-01-01T12:01:13.625Z,997.36
2018-01-01T12:02:13.563Z,997.35
2018-01-01T12:03:13.499Z,997.28
2018-01-01T12:04:13.435Z,997.25
2018-01-01T12:05:13.371Z,997.23
2018-01-01T12:06:13.308Z,997.20
2018-01-01T12:07:13.245Z,997.12
2018-01-01T12:08:13.182Z,997.15
2018-01-01T12:09:13.126Z,997.08
2018-01-01T12:10:13.056Z,997.09
2018-01-01T12:11:12.994Z,996.99
2018-01-01T12:12:12.930Z,997.02
2018-01-01T12:13:12.867Z,996.98
2018-01-01T12:14:12.803Z,997.04
2018-01-01T12:15:12.739Z,996.98
2018-01-01T12:16:12.675Z,996.96
2018-01-01T12:17:12.613Z,996.89
2018-01-01T12:18:12.549Z,996.94
2018-01-01T12:19:12.485Z,996.90
2018-01-01T12:20:12.424Z,996.80
2018-01-01T12:21:12.357Z,996.77
2018-01-01T12:22:12.296Z,996.71
2018-01-01T12:23:12.232Z,996.67
2018-01-01T12:24:12.169Z,996.64
2018-01-01T12:25:12.107Z,996.59
2018-01-01T12:26:12.042Z,996.56
2018-01-01T12:27:11.979Z,996.50